Time;durP1;ratioP1;P1;durP2;ratioP2;P2;SDS_P1;SDS_P2;PMS_P1;PMS_P2;Temp;Humidity;BMP_temperature;BMP_pressure;BME280_temperature;BME280_humidity;BME280_pressure;Samples;Min_cycle;Max_cycle;Signal;HPM_P1;HPM_P2
2022/03/06 00:01:53;;;;;;;6.63;5.53;;;4.00;51.80;;;;;;912622;154;27399;-78
2022/03/06 00:04:20;;;;;;;7.00;5.67;;;4.00;51.90;;;;;;913442;153;27399;-78
2022/03/06 00:06:46;;;;;;;6.40;5.60;;;4.00;52.00;;;;;;912561;154;27494;-78
2022/03/06 00:09:13;;;;;;;7.70;6.27;;;4.00;52.00;;;;;;913375;154;27383;-78
2022/03/06 00:11:39;;;;;;;7.20;5.77;;;3.90;52.00;;;;;;912891;153;27416;-78
2022/03/06 00:14:06;;;;;;;7.60;5.53;;;3.90;52.10;;;;;;928951;151;27322;-78
2022/03/06 00:16:33;;;;;;;6.47;5.80;;;4.00;52.20;;;;;;897771;156;27429;-78
2022/03/06 00:18:59;;;;;;;7.80;6.63;;;4.00;52.10;;;;;;912788;153;27414;-78
2022/03/06 00:21:26;;;;;;;8.60;5.97;;;4.00;52.10;;;;;;912314;154;27497;-78
2022/03/06 00:23:52;;;;;;;7.40;6.23;;;4.00;52.30;;;;;;912850;154;27420;-78
2022/03/06 00:26:19;;;;;;;6.50;5.80;;;4.00;52.30;;;;;;912955;153;27340;-78
2022/03/06 00:28:45;;;;;;;7.63;5.90;;;4.10;52.40;;;;;;912960;153;27395;-78
2022/03/06 00:31:12;;;;;;;6.93;5.27;;;4.10;52.40;;;;;;913180;153;27432;-78
2022/03/06 00:33:39;;;;;;;6.10;5.03;;;4.10;52.30;;;;;;913164;154;27468;-78
2022/03/06 00:36:05;;;;;;;6.07;5.40;;;4.10;52.30;;;;;;912626;154;27477;-78
2022/03/06 00:38:32;;;;;;;7.50;6.00;;;4.10;52.10;;;;;;912234;154;27406;-78
2022/03/06 00:40:58;;;;;;;8.93;5.80;;;4.10;52.20;;;;;;913052;153;27446;-78
2022/03/06 00:43:25;;;;;;;7.87;5.80;;;4.20;52.20;;;;;;912753;154;27450;-78
2022/03/06 00:45:52;;;;;;;6.70;5.67;;;4.20;52.30;;;;;;912671;154;27376;-78
2022/03/06 00:48:18;;;;;;;6.57;5.90;;;4.20;52.30;;;;;;912721;154;27473;-78
2022/03/06 00:50:45;;;;;;;8.13;6.10;;;4.20;52.30;;;;;;913663;154;27376;-78
2022/03/06 00:53:11;;;;;;;12.03;5.90;;;4.30;52.40;;;;;;913421;154;27493;-78
2022/03/06 00:55:38;;;;;;;6.77;5.23;;;4.20;52.30;;;;;;912471;153;27418;-78
2022/03/06 00:58:09;;;;;;;5.67;4.67;;;4.30;52.40;;;;;;896745;156;29131;-78
2022/03/06 01:00:35;;;;;;;6.60;5.07;;;4.30;52.50;;;;;;916046;153;27992;-78
2022/03/06 01:03:01;;;;;;;6.10;5.50;;;4.30;52.90;;;;;;915681;153;27477;-78
2022/03/06 01:05:27;;;;;;;6.80;5.17;;;4.30;52.40;;;;;;897172;156;27370;-78
2022/03/06 01:07:54;;;;;;;6.60;5.10;;;4.30;52.40;;;;;;911893;153;27545;-78
2022/03/06 01:10:20;;;;;;;6.20;5.30;;;4.30;52.50;;;;;;912303;153;27471;-78
2022/03/06 01:12:47;;;;;;;5.73;4.67;;;4.40;52.50;;;;;;929098;151;27462;-78
2022/03/06 01:15:14;;;;;;;6.73;5.43;;;4.40;52.60;;;;;;897056;157;27482;-78
2022/03/06 01:17:40;;;;;;;6.83;5.37;;;4.40;52.60;;;;;;897376;156;27367;-78
2022/03/06 01:20:07;;;;;;;6.00;5.00;;;4.40;52.60;;;;;;916112;153;27406;-78
2022/03/06 01:22:34;;;;;;;6.20;5.23;;;4.40;52.50;;;;;;915512;154;27443;-78
2022/03/06 01:25:00;;;;;;;6.97;5.53;;;4.40;52.50;;;;;;897527;156;27422;-78
2022/03/06 01:27:27;;;;;;;7.00;5.67;;;4.50;52.60;;;;;;913034;153;28036;-78
2022/03/06 01:29:53;;;;;;;6.50;5.30;;;4.50;52.50;;;;;;912580;153;27480;-78
2022/03/06 01:32:20;;;;;;;6.40;5.03;;;4.50;52.50;;;;;;912821;154;27502;-78
2022/03/06 01:34:47;;;;;;;8.40;5.50;;;4.50;52.60;;;;;;912507;154;27478;-78
2022/03/06 01:37:13;;;;;;;6.03;5.07;;;4.50;52.70;;;;;;929462;151;27340;-78
2022/03/06 01:39:40;;;;;;;8.93;5.03;;;4.50;52.70;;;;;;897282;156;27365;-78
2022/03/06 01:42:06;;;;;;;6.33;5.17;;;4.50;52.40;;;;;;896419;157;27556;-78
2022/03/06 01:44:33;;;;;;;5.53;4.90;;;4.50;52.70;;;;;;897119;157;27382;-78
2022/03/06 01:46:59;;;;;;;5.63;4.83;;;4.50;52.80;;;;;;900037;157;27526;-78
2022/03/06 01:49:26;;;;;;;5.40;4.87;;;4.50;53.00;;;;;;897850;156;27539;-78
2022/03/06 01:51:53;;;;;;;5.20;4.57;;;4.50;52.80;;;;;;899981;156;27905;-78
2022/03/06 01:54:19;;;;;;;8.20;5.67;;;4.60;52.80;;;;;;900115;156;27469;-78
2022/03/06 01:56:46;;;;;;;6.53;5.03;;;4.50;52.70;;;;;;900062;156;27505;-78
2022/03/06 01:59:12;;;;;;;8.33;5.33;;;4.50;52.60;;;;;;900755;156;27364;-78
2022/03/06 02:01:39;;;;;;;5.97;4.60;;;4.50;52.60;;;;;;897246;156;27405;-78
2022/03/06 02:04:06;;;;;;;5.60;4.97;;;4.50;52.60;;;;;;882006;159;27954;-78
2022/03/06 02:06:32;;;;;;;7.67;5.07;;;4.50;52.60;;;;;;900053;156;27428;-78
2022/03/06 02:08:59;;;;;;;5.90;4.53;;;4.50;52.60;;;;;;900471;156;27438;-77
2022/03/06 02:11:25;;;;;;;5.07;4.23;;;4.50;52.60;;;;;;900010;156;28623;-78
2022/03/06 02:13:52;;;;;;;4.73;4.23;;;4.50;52.60;;;;;;900193;157;27435;-78
2022/03/06 02:16:18;;;;;;;6.63;5.13;;;4.40;52.60;;;;;;899862;156;27763;-78
2022/03/06 02:18:45;;;;;;;4.73;4.13;;;4.40;52.60;;;;;;899882;155;27337;-78
2022/03/06 02:21:12;;;;;;;5.20;4.37;;;4.40;52.60;;;;;;900326;156;27396;-78
2022/03/06 02:23:38;;;;;;;5.27;3.87;;;4.40;52.70;;;;;;900262;157;27444;-78
2022/03/06 02:26:05;;;;;;;4.30;3.87;;;4.30;52.60;;;;;;899480;155;27424;-77
2022/03/06 02:28:31;;;;;;;4.93;4.43;;;4.30;52.60;;;;;;900265;157;27478;-78
2022/03/06 02:30:58;;;;;;;6.40;4.83;;;4.30;52.60;;;;;;899912;156;27404;-78
2022/03/06 02:33:25;;;;;;;5.47;4.57;;;4.20;52.50;;;;;;899536;157;27396;-78
2022/03/06 02:35:51;;;;;;;5.13;3.40;;;4.10;52.60;;;;;;900340;156;27372;-78
2022/03/06 02:38:18;;;;;;;5.43;4.37;;;4.10;52.60;;;;;;900092;157;27436;-78
2022/03/06 02:40:44;;;;;;;4.53;3.90;;;4.10;52.60;;;;;;902405;154;27444;-78
2022/03/06 02:43:11;;;;;;;4.73;4.17;;;4.00;52.70;;;;;;916014;153;27384;-78
2022/03/06 02:45:39;;;;;;;4.30;3.90;;;3.90;52.60;;;;;;917428;153;27776;-78
2022/03/06 02:48:04;;;;;;;5.37;4.13;;;3.90;52.60;;;;;;917719;153;27340;-78
2022/03/06 02:50:31;;;;;;;4.63;4.13;;;3.80;52.70;;;;;;918758;153;27288;-78
2022/03/06 02:52:57;;;;;;;5.10;4.17;;;3.80;52.80;;;;;;917414;153;27393;-78
2022/03/06 02:55:24;;;;;;;6.33;4.43;;;3.70;52.90;;;;;;917164;153;27438;-78
2022/03/06 02:57:50;;;;;;;4.20;3.80;;;3.70;53.00;;;;;;917884;153;27770;-78
2022/03/06 03:00:18;;;;;;;5.60;4.00;;;3.70;53.00;;;;;;918226;153;28327;-78
2022/03/06 03:02:44;;;;;;;4.27;3.87;;;3.60;53.00;;;;;;917997;153;27396;-78
2022/03/06 03:05:13;;;;;;;5.17;4.27;;;3.60;53.00;;;;;;917432;153;27293;-78
2022/03/06 03:07:42;;;;;;;5.10;3.97;;;3.50;53.10;;;;;;917024;153;27457;-78
2022/03/06 03:10:10;;;;;;;6.10;4.30;;;3.50;53.20;;;;;;917218;152;27508;-78
2022/03/06 03:12:36;;;;;;;5.33;3.97;;;3.40;53.20;;;;;;916951;153;27512;-78
2022/03/06 03:15:03;;;;;;;6.07;4.50;;;3.40;53.30;;;;;;917825;153;27328;-78
2022/03/06 03:17:30;;;;;;;4.97;3.73;;;3.30;52.60;;;;;;896681;156;27420;-78
2022/03/06 03:19:56;;;;;;;4.33;4.00;;;3.20;53.40;;;;;;897446;156;27457;-77
2022/03/06 03:22:23;;;;;;;4.30;3.70;;;3.20;53.50;;;;;;911411;153;27475;-77
2022/03/06 03:24:49;;;;;;;4.40;3.63;;;3.10;54.10;;;;;;911437;153;28416;-78
2022/03/06 03:27:16;;;;;;;3.80;3.37;;;3.00;53.60;;;;;;916744;153;27950;-77
2022/03/06 03:29:43;;;;;;;4.27;3.70;;;3.00;53.60;;;;;;896815;156;27361;-78
2022/03/06 03:32:09;;;;;;;4.40;4.00;;;2.90;53.60;;;;;;897062;156;27385;-78
2022/03/06 03:34:36;;;;;;;4.60;3.70;;;2.80;53.60;;;;;;897439;157;27459;-78
2022/03/06 03:37:02;;;;;;;4.43;4.00;;;2.80;53.70;;;;;;913161;154;27461;-78
2022/03/06 03:39:29;;;;;;;5.10;4.27;;;2.70;53.70;;;;;;912116;154;27501;-78
2022/03/06 03:41:55;;;;;;;4.70;3.97;;;2.70;53.90;;;;;;913420;154;27414;-78
2022/03/06 03:44:22;;;;;;;3.63;3.07;;;2.60;53.90;;;;;;912468;152;27433;-78
2022/03/06 03:46:49;;;;;;;4.30;3.90;;;2.60;54.00;;;;;;915892;153;28273;-77
2022/03/06 03:49:15;;;;;;;4.67;4.27;;;2.50;53.90;;;;;;912161;153;27353;-78
2022/03/06 03:51:42;;;;;;;5.37;4.13;;;2.50;54.00;;;;;;911894;153;27408;-78
2022/03/06 03:54:08;;;;;;;4.20;3.80;;;2.50;54.50;;;;;;912019;153;27394;-77
2022/03/06 03:56:35;;;;;;;6.13;3.77;;;2.40;54.30;;;;;;912207;153;27390;-78
2022/03/06 03:59:02;;;;;;;4.70;3.23;;;2.40;54.30;;;;;;911673;153;27518;-77
2022/03/06 04:01:28;;;;;;;4.83;3.73;;;2.40;54.30;;;;;;912219;154;27324;-78
2022/03/06 04:03:55;;;;;;;4.37;3.47;;;2.30;54.30;;;;;;911930;153;27436;-78
2022/03/06 04:06:21;;;;;;;3.97;3.43;;;2.30;54.40;;;;;;912274;153;27377;-78
2022/03/06 04:08:48;;;;;;;5.00;4.07;;;2.30;54.40;;;;;;912267;153;27499;-77
2022/03/06 04:11:14;;;;;;;4.93;3.90;;;2.20;54.50;;;;;;912819;154;27417;-77
2022/03/06 04:13:41;;;;;;;4.80;3.57;;;2.20;54.50;;;;;;911795;154;27478;-77
2022/03/06 04:16:08;;;;;;;5.93;4.20;;;2.20;54.40;;;;;;913322;153;27423;-77
2022/03/06 04:18:34;;;;;;;5.87;4.67;;;2.20;54.50;;;;;;911647;154;27299;-77
2022/03/06 04:21:01;;;;;;;5.87;5.00;;;2.20;54.70;;;;;;911811;153;27972;-77
2022/03/06 04:23:27;;;;;;;4.90;4.07;;;2.10;54.80;;;;;;912129;154;27535;-78
2022/03/06 04:25:54;;;;;;;4.90;4.33;;;2.10;54.80;;;;;;912698;154;27408;-77
2022/03/06 04:28:21;;;;;;;4.77;4.20;;;2.10;54.90;;;;;;912149;153;27398;-78
2022/03/06 04:30:47;;;;;;;5.83;3.80;;;2.10;55.00;;;;;;912068;153;28026;-77
2022/03/06 04:33:14;;;;;;;5.50;4.40;;;2.10;55.00;;;;;;912453;153;27483;-77
2022/03/06 04:35:40;;;;;;;4.27;3.73;;;2.00;55.00;;;;;;911923;153;27376;-78
2022/03/06 04:38:07;;;;;;;5.63;4.47;;;2.00;55.00;;;;;;912627;153;27299;-77
2022/03/06 04:40:33;;;;;;;4.40;3.90;;;2.00;55.10;;;;;;912399;154;27353;-78
2022/03/06 04:43:00;;;;;;;6.23;4.27;;;1.90;55.10;;;;;;912479;154;27418;-77
2022/03/06 04:45:27;;;;;;;4.30;3.90;;;1.90;55.20;;;;;;911887;154;27489;-77
2022/03/06 04:47:53;;;;;;;5.60;4.17;;;1.90;55.20;;;;;;913085;153;27379;-77
2022/03/06 04:50:20;;;;;;;4.97;4.47;;;1.90;55.30;;;;;;911649;154;27353;-77
2022/03/06 04:52:46;;;;;;;4.50;3.97;;;1.90;55.30;;;;;;911885;154;27456;-78
2022/03/06 04:55:13;;;;;;;5.80;4.07;;;1.90;55.40;;;;;;912039;153;27295;-78
2022/03/06 04:57:41;;;;;;;4.20;3.73;;;1.90;55.50;;;;;;911895;153;27346;-77
2022/03/06 05:00:06;;;;;;;5.33;3.40;;;1.90;55.40;;;;;;911825;154;27374;-77
2022/03/06 05:02:33;;;;;;;4.73;4.07;;;2.00;55.30;;;;;;912581;153;27424;-77
2022/03/06 05:04:59;;;;;;;4.07;3.60;;;2.00;55.30;;;;;;912329;153;27490;-77
2022/03/06 05:07:26;;;;;;;6.00;4.17;;;2.00;55.40;;;;;;911980;153;27490;-77
2022/03/06 05:09:53;;;;;;;6.67;3.80;;;2.10;55.40;;;;;;912879;153;27359;-77
2022/03/06 05:12:19;;;;;;;4.20;3.80;;;2.10;55.40;;;;;;911652;153;27405;-78
2022/03/06 05:14:46;;;;;;;3.70;3.27;;;2.10;55.50;;;;;;912356;153;27484;-77
2022/03/06 05:17:12;;;;;;;5.50;3.87;;;2.10;55.50;;;;;;915597;151;27470;-77
2022/03/06 05:19:39;;;;;;;4.00;3.53;;;2.10;55.90;;;;;;917932;153;27355;-77
2022/03/06 05:22:06;;;;;;;4.23;3.80;;;2.10;55.40;;;;;;917768;153;27387;-77
2022/03/06 05:24:32;;;;;;;3.83;3.53;;;2.10;55.40;;;;;;896555;156;27435;-77
2022/03/06 05:26:59;;;;;;;4.47;3.53;;;2.10;55.50;;;;;;897236;156;27517;-78
2022/03/06 05:29:25;;;;;;;4.13;3.70;;;2.00;55.30;;;;;;915161;154;27960;-77
2022/03/06 05:31:52;;;;;;;4.10;3.70;;;2.00;55.30;;;;;;912272;154;27328;-77
2022/03/06 05:34:18;;;;;;;4.33;3.93;;;2.00;55.20;;;;;;913042;153;27401;-78
2022/03/06 05:36:45;;;;;;;3.80;3.50;;;2.00;55.20;;;;;;912438;153;27374;-77
2022/03/06 05:39:12;;;;;;;6.07;4.00;;;1.90;55.20;;;;;;912860;154;27398;-77
2022/03/06 05:41:38;;;;;;;5.67;4.07;;;1.90;55.30;;;;;;911966;154;27390;-77
2022/03/06 05:44:05;;;;;;;6.33;4.20;;;1.90;55.50;;;;;;913393;153;27422;-77
2022/03/06 05:46:31;;;;;;;4.17;3.77;;;1.90;55.40;;;;;;913411;154;27326;-77
2022/03/06 05:48:58;;;;;;;4.30;3.90;;;1.90;55.50;;;;;;913592;153;27350;-77
2022/03/06 05:51:24;;;;;;;4.83;3.87;;;1.80;55.30;;;;;;913989;153;27307;-77
2022/03/06 05:53:51;;;;;;;4.27;3.83;;;1.80;55.40;;;;;;912984;153;27369;-77
2022/03/06 05:56:18;;;;;;;4.83;4.33;;;1.80;55.50;;;;;;913758;153;27386;-77
2022/03/06 05:58:44;;;;;;;3.63;3.33;;;1.80;55.50;;;;;;913677;153;27386;-77
2022/03/06 06:01:12;;;;;;;4.13;3.57;;;1.80;55.60;;;;;;913205;154;27536;-78
2022/03/06 06:03:37;;;;;;;4.33;3.67;;;1.80;55.60;;;;;;897881;157;27327;-77
2022/03/06 06:06:04;;;;;;;4.67;4.07;;;1.70;55.60;;;;;;912476;154;27817;-77
2022/03/06 06:08:31;;;;;;;3.63;3.30;;;1.70;55.60;;;;;;913528;154;27449;-77
2022/03/06 06:10:57;;;;;;;5.30;4.00;;;1.70;55.60;;;;;;912914;153;27362;-77
2022/03/06 06:13:24;;;;;;;4.83;4.40;;;1.70;55.60;;;;;;914619;154;27385;-78
2022/03/06 06:15:50;;;;;;;4.23;3.93;;;1.70;55.70;;;;;;914496;154;27401;-77
2022/03/06 06:18:18;;;;;;;4.63;3.97;;;1.60;55.80;;;;;;913793;153;28948;-77
2022/03/06 06:20:43;;;;;;;4.50;3.73;;;1.60;55.90;;;;;;913870;153;27444;-77
2022/03/06 06:23:10;;;;;;;4.13;3.73;;;1.60;55.80;;;;;;913668;153;27355;-77
2022/03/06 06:25:37;;;;;;;5.47;4.43;;;1.60;55.80;;;;;;898639;157;27423;-78
2022/03/06 06:28:03;;;;;;;4.80;3.87;;;1.60;56.00;;;;;;899118;157;27381;-77
2022/03/06 06:30:30;;;;;;;4.93;3.83;;;1.60;56.00;;;;;;897947;157;27393;-77
2022/03/06 06:32:56;;;;;;;4.60;3.77;;;1.60;56.20;;;;;;909681;155;27783;-77
2022/03/06 06:35:23;;;;;;;4.73;3.77;;;1.70;56.20;;;;;;909647;155;27399;-77
2022/03/06 06:37:50;;;;;;;4.10;3.70;;;1.70;56.30;;;;;;909094;155;27344;-77
2022/03/06 06:40:16;;;;;;;5.00;3.77;;;1.80;56.40;;;;;;910057;155;27329;-77
2022/03/06 06:42:43;;;;;;;5.10;3.90;;;1.80;56.30;;;;;;909366;155;27473;-77
2022/03/06 06:45:09;;;;;;;3.77;3.23;;;1.90;56.40;;;;;;909740;154;27517;-77
2022/03/06 06:47:36;;;;;;;3.60;3.30;;;1.90;56.40;;;;;;908655;155;27341;-78
2022/03/06 06:50:03;;;;;;;5.17;4.20;;;2.00;56.40;;;;;;909825;155;27477;-77
2022/03/06 06:52:29;;;;;;;4.67;3.83;;;2.10;56.40;;;;;;909562;155;27399;-78
2022/03/06 06:54:56;;;;;;;3.97;3.57;;;2.20;56.40;;;;;;908913;154;27416;-78
2022/03/06 06:57:22;;;;;;;4.03;3.50;;;2.30;56.40;;;;;;909220;155;27371;-78
2022/03/06 06:59:49;;;;;;;6.63;4.10;;;2.30;56.30;;;;;;910032;155;27945;-77
2022/03/06 07:02:15;;;;;;;4.03;3.57;;;2.40;56.30;;;;;;909265;155;27395;-78
2022/03/06 07:04:42;;;;;;;4.80;3.93;;;2.50;56.20;;;;;;908967;155;27370;-78
2022/03/06 07:07:09;;;;;;;4.47;3.70;;;2.60;56.20;;;;;;909608;155;27489;-77
2022/03/06 07:09:35;;;;;;;5.00;4.30;;;2.70;56.10;;;;;;909440;155;27428;-78
2022/03/06 07:12:03;;;;;;;4.77;4.27;;;2.80;56.20;;;;;;909820;155;27419;-78
2022/03/06 07:14:28;;;;;;;5.20;4.40;;;2.90;56.20;;;;;;910441;155;27336;-78
2022/03/06 07:16:55;;;;;;;4.47;4.07;;;3.00;56.20;;;;;;910263;154;27402;-78
2022/03/06 07:19:21;;;;;;;5.27;4.10;;;3.30;56.60;;;;;;909834;155;27443;-78
2022/03/06 07:21:48;;;;;;;4.77;4.20;;;3.60;57.80;;;;;;909048;155;27372;-78
2022/03/06 07:24:15;;;;;;;4.23;3.83;;;4.10;57.90;;;;;;909873;155;27412;-78
2022/03/06 07:26:41;;;;;;;4.93;4.30;;;4.60;58.30;;;;;;909766;155;27503;-78
2022/03/06 07:29:08;;;;;;;6.00;5.17;;;5.20;57.60;;;;;;909719;155;27816;-78
2022/03/06 07:31:34;;;;;;;6.70;5.23;;;5.60;56.90;;;;;;909412;155;27349;-78
2022/03/06 07:34:01;;;;;;;5.10;4.50;;;6.00;56.10;;;;;;910492;155;27482;-78
2022/03/06 07:36:28;;;;;;;5.77;4.93;;;6.40;55.40;;;;;;910250;155;27519;-78
2022/03/06 07:38:54;;;;;;;6.03;5.43;;;6.70;55.10;;;;;;909620;155;27368;-78
2022/03/06 07:41:21;;;;;;;5.93;5.33;;;7.00;54.90;;;;;;909709;155;27471;-78
2022/03/06 07:43:47;;;;;;;5.43;4.93;;;7.30;54.60;;;;;;909808;154;27514;-78
2022/03/06 07:46:14;;;;;;;7.17;4.90;;;7.60;54.30;;;;;;914542;153;27391;-78
2022/03/06 07:48:40;;;;;;;6.67;5.03;;;7.90;54.20;;;;;;917927;153;27428;-78
2022/03/06 07:51:07;;;;;;;5.93;5.33;;;8.20;54.00;;;;;;913185;154;27339;-78
2022/03/06 07:53:34;;;;;;;6.57;4.90;;;8.60;54.10;;;;;;912764;154;27432;-77
2022/03/06 07:56:00;;;;;;;7.10;5.17;;;9.10;54.30;;;;;;912788;154;27446;-77
2022/03/06 07:58:27;;;;;;;5.50;4.83;;;9.60;54.30;;;;;;912766;154;27453;-78
2022/03/06 08:00:53;;;;;;;7.60;4.93;;;10.10;54.10;;;;;;913111;153;27524;-78
2022/03/06 08:03:20;;;;;;;6.43;5.63;;;10.60;53.30;;;;;;917238;153;27530;-78
2022/03/06 08:05:47;;;;;;;6.50;5.90;;;11.00;52.30;;;;;;912608;153;27806;-77
2022/03/06 08:08:13;;;;;;;5.87;5.10;;;11.20;51.10;;;;;;912222;154;27387;-77
2022/03/06 08:10:40;;;;;;;5.77;5.27;;;11.20;50.10;;;;;;912808;153;27399;-77
2022/03/06 08:13:06;;;;;;;7.07;5.17;;;11.20;49.60;;;;;;912185;154;27299;-77
2022/03/06 08:15:33;;;;;;;5.67;4.97;;;11.10;49.30;;;;;;912823;154;27351;-77
2022/03/06 08:17:59;;;;;;;5.87;5.30;;;11.00;49.10;;;;;;911982;153;27480;-77
2022/03/06 08:20:26;;;;;;;6.00;4.47;;;10.90;49.00;;;;;;912959;154;27327;-78
2022/03/06 08:22:53;;;;;;;6.40;5.33;;;11.00;49.50;;;;;;912254;154;28401;-78
2022/03/06 08:25:20;;;;;;;6.93;5.77;;;11.10;50.00;;;;;;912369;154;27728;-78
2022/03/06 08:27:46;;;;;;;6.00;5.07;;;11.30;50.20;;;;;;911928;153;27370;-78
2022/03/06 08:30:13;;;;;;;5.63;5.13;;;11.60;50.10;;;;;;913281;154;27319;-78
2022/03/06 08:32:39;;;;;;;5.50;5.00;;;11.80;49.70;;;;;;912889;154;27387;-78
2022/03/06 08:35:06;;;;;;;6.80;5.20;;;12.20;50.50;;;;;;913025;153;27398;-78
2022/03/06 08:37:32;;;;;;;6.67;5.27;;;12.60;49.90;;;;;;912256;153;27482;-78
2022/03/06 08:39:59;;;;;;;5.30;4.80;;;13.00;49.70;;;;;;911456;154;27459;-78
2022/03/06 08:42:25;;;;;;;6.43;5.00;;;13.50;49.40;;;;;;912314;154;27377;-78
2022/03/06 08:44:52;;;;;;;4.83;4.42;;;14.00;49.00;;;;;;912117;154;27407;-78
2022/03/06 08:47:19;;;;;;;5.35;4.85;;;14.50;48.40;;;;;;913307;153;27478;-79
2022/03/06 08:49:45;;;;;;;5.50;4.47;;;15.00;48.00;;;;;;913193;154;27300;-79
2022/03/06 08:52:12;;;;;;;4.83;4.42;;;15.50;47.90;;;;;;914382;154;27394;-79
2022/03/06 08:54:38;;;;;;;5.70;5.12;;;16.00;47.60;;;;;;913224;154;27801;-79
2022/03/06 08:57:05;;;;;;;5.55;4.67;;;16.50;47.30;;;;;;913407;154;29206;-79
2022/03/06 08:59:32;;;;;;;4.40;4.00;;;17.00;46.60;;;;;;913625;154;27345;-79
2022/03/06 09:01:58;;;;;;;4.85;4.45;;;17.30;45.80;;;;;;898827;157;27458;-79
2022/03/06 09:04:25;;;;;;;5.00;4.42;;;17.70;44.60;;;;;;898358;156;27361;-79
2022/03/06 09:06:51;;;;;;;4.42;4.03;;;18.10;44.50;;;;;;913105;153;27757;-79
2022/03/06 09:09:18;;;;;;;5.05;4.58;;;18.30;44.00;;;;;;912922;154;27495;-79
2022/03/06 09:11:47;;;;;;;3.87;3.52;;;18.50;42.80;;;;;;913311;153;27714;-79
2022/03/06 09:14:11;;;;;;;4.15;3.80;;;18.70;42.80;;;;;;912105;154;27394;-79
2022/03/06 09:16:38;;;;;;;4.00;3.70;;;18.80;42.10;;;;;;913121;154;27369;-79
2022/03/06 09:19:04;;;;;;;3.50;3.30;;;18.90;41.10;;;;;;913550;153;27453;-79
2022/03/06 09:21:31;;;;;;;4.03;3.40;;;18.80;40.30;;;;;;913888;153;27365;-79
2022/03/06 09:23:57;;;;;;;3.50;3.22;;;18.60;39.60;;;;;;912790;153;27314;-79
2022/03/06 09:26:24;;;;;;;3.80;3.50;;;18.30;39.10;;;;;;913364;153;27311;-79
2022/03/06 09:28:51;;;;;;;3.75;3.40;;;17.90;38.10;;;;;;913974;153;27401;-79
2022/03/06 09:31:17;;;;;;;4.05;3.52;;;17.40;37.70;;;;;;913732;153;27386;-78
2022/03/06 09:33:44;;;;;;;5.07;3.83;;;16.80;37.60;;;;;;913767;153;27398;-78
2022/03/06 09:36:10;;;;;;;4.20;3.90;;;16.30;37.40;;;;;;913912;153;27443;-78
2022/03/06 09:38:37;;;;;;;4.70;4.30;;;15.80;37.80;;;;;;917550;153;27685;-78
2022/03/06 09:41:04;;;;;;;5.00;4.20;;;15.30;37.80;;;;;;929806;150;27350;-78
2022/03/06 09:43:30;;;;;;;4.83;4.43;;;14.80;38.30;;;;;;929870;151;27307;-78
2022/03/06 09:46:02;;;;;;;4.07;3.77;;;14.40;38.10;;;;;;929530;150;27425;-78
2022/03/06 09:48:30;;;;;;;4.87;4.43;;;14.10;38.70;;;;;;927196;150;27376;-77
2022/03/06 09:50:56;;;;;;;4.50;4.10;;;13.80;39.00;;;;;;927735;152;27474;-78
2022/03/06 09:53:22;;;;;;;4.73;4.33;;;13.60;39.70;;;;;;927699;151;27336;-78
2022/03/06 09:55:49;;;;;;;4.90;4.50;;;13.40;39.10;;;;;;928096;151;27340;-78
2022/03/06 09:58:15;;;;;;;5.37;4.87;;;13.30;39.30;;;;;;911707;153;27287;-78
2022/03/06 10:00:42;;;;;;;5.50;4.67;;;13.10;39.60;;;;;;896793;157;27480;-78
2022/03/06 10:03:08;;;;;;;4.50;4.10;;;13.00;39.90;;;;;;928957;150;27360;-78
2022/03/06 10:05:36;;;;;;;5.13;3.97;;;12.90;40.00;;;;;;927127;151;27443;-78
2022/03/06 10:08:20;;;;;;;4.83;4.43;;;12.80;40.40;;;;;;927002;150;27380;-78
2022/03/06 10:10:46;;;;;;;5.10;4.60;;;12.70;40.50;;;;;;928095;151;27376;-79
2022/03/06 10:13:31;;;;;;;4.90;4.50;;;12.70;40.00;;;;;;927246;151;27344;-79
2022/03/06 10:16:09;;;;;;;5.30;4.80;;;12.60;39.60;;;;;;927227;150;27392;-79
2022/03/06 10:18:45;;;;;;;5.80;4.60;;;12.60;40.00;;;;;;928621;151;27396;-79
2022/03/06 10:21:18;;;;;;;5.07;4.67;;;12.60;40.70;;;;;;927729;150;27919;-79
2022/03/06 10:23:44;;;;;;;5.10;4.70;;;12.50;40.20;;;;;;927607;150;27481;-79
2022/03/06 10:26:13;;;;;;;4.83;4.43;;;12.50;39.90;;;;;;928129;150;27437;-79
2022/03/06 10:28:55;;;;;;;4.27;3.90;;;12.40;39.90;;;;;;926940;150;27297;-79
2022/03/06 10:31:21;;;;;;;4.23;3.83;;;12.30;39.50;;;;;;927559;151;27367;-79
2022/03/06 10:34:00;;;;;;;4.97;4.43;;;12.20;40.00;;;;;;927748;151;27435;-78
2022/03/06 10:36:29;;;;;;;4.93;4.53;;;12.20;40.00;;;;;;928391;152;27395;-77
2022/03/06 10:38:56;;;;;;;5.57;4.93;;;12.00;39.90;;;;;;927446;150;27398;-78
2022/03/06 10:41:22;;;;;;;8.30;6.70;;;11.90;39.70;;;;;;928321;150;27418;-79
2022/03/06 10:43:49;;;;;;;6.00;5.10;;;11.70;39.50;;;;;;928008;151;27434;-79
2022/03/06 10:46:16;;;;;;;5.33;4.83;;;11.60;39.70;;;;;;928584;150;27450;-79
2022/03/06 10:48:57;;;;;;;4.80;4.27;;;11.50;39.80;;;;;;934226;150;27443;-79
2022/03/06 10:51:24;;;;;;;4.47;4.07;;;11.40;40.00;;;;;;933324;150;27359;-79
2022/03/06 10:53:59;;;;;;;4.90;4.50;;;11.30;40.10;;;;;;902738;156;27445;-78
2022/03/06 10:56:26;;;;;;;7.43;4.23;;;11.20;40.30;;;;;;934392;150;27518;-79
2022/03/06 10:58:54;;;;;;;4.60;4.20;;;11.20;40.20;;;;;;934449;150;27364;-79
2022/03/06 11:01:19;;;;;;;4.60;4.20;;;11.20;40.40;;;;;;935485;150;27350;-79
2022/03/06 11:03:46;;;;;;;4.30;4.00;;;11.10;40.50;;;;;;934517;150;27484;-79
2022/03/06 11:06:13;;;;;;;5.03;4.63;;;11.10;41.00;;;;;;934651;150;27324;-79
2022/03/06 11:08:39;;;;;;;5.27;4.77;;;11.10;40.40;;;;;;902235;155;27444;-79
2022/03/06 11:11:06;;;;;;;5.37;4.50;;;11.00;40.60;;;;;;934382;150;27379;-79
2022/03/06 11:13:32;;;;;;;3.90;3.53;;;11.00;40.70;;;;;;934665;150;27382;-79
2022/03/06 11:15:59;;;;;;;5.00;4.50;;;11.00;40.80;;;;;;934495;151;27385;-79
2022/03/06 11:18:25;;;;;;;6.10;5.00;;;11.00;39.60;;;;;;918571;153;27294;-79
2022/03/06 11:20:52;;;;;;;6.23;5.10;;;11.00;40.80;;;;;;934662;150;27431;-79
2022/03/06 11:23:22;;;;;;;5.70;5.20;;;10.90;40.30;;;;;;934382;150;27370;-79
2022/03/06 11:25:57;;;;;;;6.17;5.30;;;10.90;41.00;;;;;;902907;155;27399;-79
2022/03/06 11:28:29;;;;;;;4.87;4.40;;;10.80;40.50;;;;;;934221;150;27402;-79
2022/03/06 11:30:59;;;;;;;4.83;4.43;;;10.80;40.60;;;;;;932786;150;27829;-79
2022/03/06 11:33:25;;;;;;;5.07;4.50;;;10.80;40.60;;;;;;934709;150;27422;-79
2022/03/06 11:35:52;;;;;;;5.43;4.70;;;10.80;40.80;;;;;;934335;150;27363;-79
2022/03/06 11:38:20;;;;;;;5.10;4.60;;;10.80;40.40;;;;;;934970;150;27403;-79
2022/03/06 11:40:51;;;;;;;5.00;4.57;;;10.80;40.60;;;;;;934113;150;27383;-79
2022/03/06 11:43:33;;;;;;;4.83;4.37;;;10.70;40.30;;;;;;935206;150;27402;-79
2022/03/06 11:45:59;;;;;;;5.07;4.63;;;10.70;40.30;;;;;;903261;156;27432;-80
2022/03/06 11:48:34;;;;;;;4.73;4.13;;;10.70;40.50;;;;;;928682;150;27390;-79
2022/03/06 11:51:21;;;;;;;4.67;4.27;;;10.60;40.60;;;;;;927568;150;27356;-80
2022/03/06 11:53:57;;;;;;;5.87;4.30;;;10.60;40.80;;;;;;927234;150;27374;-79
2022/03/06 11:56:35;;;;;;;5.00;4.47;;;10.60;41.00;;;;;;927412;150;27383;-79
2022/03/06 11:59:25;;;;;;;5.03;4.63;;;10.60;40.80;;;;;;927005;150;27958;-79
2022/03/06 12:01:52;;;;;;;4.80;4.40;;;10.60;40.80;;;;;;897145;156;27394;-79
2022/03/06 12:04:18;;;;;;;5.90;5.33;;;10.60;40.80;;;;;;896853;155;27426;-80
2022/03/06 12:06:48;;;;;;;5.47;4.83;;;10.50;40.70;;;;;;896772;155;27511;-80
2022/03/06 12:09:14;;;;;;;4.50;4.07;;;10.50;40.60;;;;;;897223;155;27477;-79
2022/03/06 12:11:41;;;;;;;5.70;5.17;;;10.50;40.70;;;;;;912228;154;27402;-79
2022/03/06 12:14:14;;;;;;;4.90;4.50;;;10.60;40.90;;;;;;912287;154;27898;-79
2022/03/06 12:17:06;;;;;;;5.83;5.30;;;10.50;40.80;;;;;;912750;153;27888;-80
2022/03/06 12:19:46;;;;;;;5.00;4.33;;;10.50;40.70;;;;;;915170;153;27523;-80
2022/03/06 12:22:21;;;;;;;4.87;4.40;;;10.50;40.70;;;;;;898701;156;27371;-79
2022/03/06 12:24:51;;;;;;;4.60;4.20;;;10.50;41.10;;;;;;910892;154;27865;-79
2022/03/06 12:27:17;;;;;;;4.40;4.00;;;10.50;41.20;;;;;;907491;153;27492;-79
2022/03/06 12:29:47;;;;;;;4.50;4.10;;;10.50;40.80;;;;;;912231;153;29012;-79
2022/03/06 12:32:25;;;;;;;5.07;4.67;;;10.50;40.30;;;;;;912438;153;27445;-79
2022/03/06 12:35:00;;;;;;;5.00;4.57;;;10.50;40.90;;;;;;911865;154;27373;-79
2022/03/06 12:37:39;;;;;;;5.67;5.17;;;10.60;41.10;;;;;;911400;153;27778;-80
2022/03/06 12:40:06;;;;;;;5.40;4.90;;;10.60;41.10;;;;;;912498;153;27409;-80
2022/03/06 12:42:32;;;;;;;5.13;4.63;;;10.70;41.10;;;;;;908470;153;27479;-79
2022/03/06 12:45:06;;;;;;;5.30;4.80;;;10.70;41.00;;;;;;912118;154;27379;-79
2022/03/06 12:47:31;;;;;;;4.73;4.33;;;10.80;41.00;;;;;;912100;153;27334;-79
2022/03/06 12:49:59;;;;;;;5.13;4.63;;;10.80;41.00;;;;;;913501;153;27796;-79
2022/03/06 12:52:25;;;;;;;5.20;4.70;;;10.80;41.10;;;;;;912576;153;27378;-78
2022/03/06 12:54:51;;;;;;;4.60;4.10;;;10.90;41.10;;;;;;912994;154;27472;-79